Share

Rayong, Thailand

01:58 PM ICT on April 24, 2014 (GMT +0700)
U-Taphao International (VTBU) Elev 39 ft | 12.68 °N, 101.00 °E | Change Station

Current weather conditions updated 28 minutes ago

Scattered Clouds
Växlande molnighet
91 °F
Feels Like 107 °F
N
12
Vind Växlande Vind from SV
Soluppgång 5:57 AM
Solnedgång 6:28 PM
Månen Fjärde kvarteret

Today is forecast to be nearly the same temperature as yesterday. Åskväder sent under natten. tonight.

Lufttryck 29.77 tum
Sikt 6.2 miles
Molnigt Few 2000 ft
Växlande molnighet 30000 ft
Värmeindex 107 °F
Daggpunkt 79 °F
Luftfuktighet 66%
Rainfall 0.00 tum
Snow Depth Not available.
UV 13 out of 16
Pollen Not available.
Air Quality Not available.
Flu Activity Not available.
METAR VTBU 240630Z 23010KT 9999 FEW020 SCT300 33/26 Q1008 A2979

More Conditions Fewer Conditions

Lufttryck 29.77 tum
Sikt 6.2 miles
Molnigt Few 2000 ft
Växlande molnighet 30000 ft
Värmeindex 107 °F
Daggpunkt 79 °F
Luftfuktighet 66%
Rainfall 0.00 tum
Snow Depth Not available.
UV 13 out of 16
Pollen Not available.
Air Quality Not available.
Flu Activity Not available.
METAR VTBU 240630Z 23010KT 9999 FEW020 SCT300 33/26 Q1008 A2979

More Conditions Fewer Conditions

10-Day Weather Forecast

Almanac

Astronomi

Apr. 24, 2014 Rise Set
Actual Time 5:57 AM ICT 6:28 PM ICT
Civil Twilight 5:35 AM ICT 6:49 PM ICT
Nautical Twilight 5:10 AM ICT 7:15 PM ICT
Astronomical Twilight 4:44 AM ICT 7:41 PM ICT
Månen 1:51 AM ICT 2:00 PM ICT
Length Of Visible Light 13h 13m
Dagens längd
12h 30m
Tomorrow will be 0m 37s longer.
Fjärde kvarteret, 28% of the Moon is Illuminated
Idag
Fjärde kvarteret
Apr 29
New
May 6
Första kvarteret
May 14
Fullmåne
May 21
Sista kvarteret

Yesterday's Extremes

Country Highs Country Lows

Community

  • Stacked
    Stacked
  • clouds approaching Red Sox Nation
    clouds approaching Red Sox Nation
  • Balance
    Balance
  • Nestled In
    Nestled In
  • Stunning Sunrise
    Stunning Sunrise

WunderPhotos

Upload Photos

1,704,569 photos uploaded!

WunderBlogs® & News

Nearby

Snödjup

Not available.

Coastal Water Temperatures

Plats Temperatur
No Stations Reporting

Earthquake Activity

Stad Distance Mag. Time & Date
No recent earthquake activity has been reported nearby.
Minimum magnitude displayed is 2.5.

Nearby Weather Stations

There are no personal weather stations in this area.

What do you think?

We're not finished. Please let us know what you like, what you don't like, and what you are still missing.